PTAO2: Poteau River, Poteau, OK

                                SHEF ID:       PTAO2     Poteau River at Poteau, OK
STATION TYPE:
Regulating: Stage = 20.00, Flow = 7395

PRECIP STAGE RIV-FLOW VOLTAGE BAT-LOAD
in ft cfs volt volt
Ccp-Rev Ccp-Rev Ccp-Rev Ccp-Rev Ccp-Rev
(America/Chicago)
05/04 00:00 0.00 9.34 2045 12.86 12.34
05/04 01:00 0.00 9.34 2045 12.84 12.30
05/04 02:00 0.00 9.34 2045 12.81 12.31
05/04 03:00 0.00 9.34 2045 12.79 12.29
05/04 04:00 0.00 9.33 2041 12.77 12.25
05/04 05:00 0.00 9.34 2045 12.76 12.21
05/04 06:00 0.00 9.32 2038 12.75 12.17
05/04 07:00 0.00 9.32 2038 12.78 12.21
05/04 08:00 0.00 9.31 2035 14.16 12.63
05/04 09:00 0.00 9.30 2031 13.95 13.07
05/04 10:00 0.00 9.28 2025 13.41 12.89
05/04 11:00 0.00 9.29 2028 13.39 12.82
05/04 12:00 0.00 9.29 2028 13.36 12.77
05/04 13:00 0.00 9.28 2025 13.38 12.79
05/04 14:00 0.00 9.26 2018 13.36 12.77
05/04 15:00 0.00 9.26 2018 13.35 12.73
05/04 16:00 0.00 9.25 2015 13.32 12.71
05/04 17:00 0.00 9.25 2015 13.32 12.67
05/04 18:00 0.00 9.24 2011 13.34 12.70
05/04 19:00 0.00 9.25 2015 13.44 12.70
05/04 20:00 0.00 9.24 2011 13.22 12.70
05/04 21:00 0.00 9.24 2011 13.04 12.47
05/04 22:00 0.00 9.21 2001 12.96 12.41
05/04 23:00 0.00 9.23 2008 12.92 12.34
Data processed at Tue 05May2026 04:48 GMT

NOTICE: If you are parsing this page

Please convert to using our Data API. Starting early 2026 we will be migrating to: https://water.usace.army.mil with modern pages rendered in JavaScript. When this migration completes you will no longer be able to scrape this page! CWMSDataAPI (CDA)

Timeseries IDs (TSIDs)

TSIDs used from left to right in the data table
POTE.Precip-Inc.Total.1Hour.1Hour.Ccp-Rev
POTE.Stage.Inst.1Hour.0.Ccp-Rev
POTE.Flow.Inst.1Hour.0.Ccp-Rev
POTE.Volt-Battery.Inst.1Hour.0.Ccp-Rev
POTE.Volt-Battery Load.Inst.1Hour.0.Ccp-Rev

                            

All information presented herein is the property of the government of the United States of America and may be revised or deleted at any time without prior notice. Dissemination of this information without the expressed written consent of the Public Affairs Office, Tulsa District U.S. Army Corps of Engineers is strictly prohibited. These data are gathered electronically and, as presented, have NOT undergone any form of quality control. These data are NOT guaranteed to be valid or correct.